sensor_id;sensor_type;location;lat;lon;timestamp;P1;durP1;ratioP1;P2;durP2;ratioP2
27893;SDS011;15240;50.812;4.792;2023-02-13T00:01:17;153.00;;;56.10;;
27893;SDS011;15240;50.812;4.792;2023-02-13T00:03:43;166.07;;;56.83;;
27893;SDS011;15240;50.812;4.792;2023-02-13T00:06:09;188.73;;;58.40;;
27893;SDS011;15240;50.812;4.792;2023-02-13T00:08:35;350.77;;;58.27;;
27893;SDS011;15240;50.812;4.792;2023-02-13T00:11:01;625.97;;;55.13;;
27893;SDS011;15240;50.812;4.792;2023-02-13T00:13:27;532.03;;;50.37;;
27893;SDS011;15240;50.812;4.792;2023-02-13T00:15:54;546.70;;;49.83;;
27893;SDS011;15240;50.812;4.792;2023-02-13T00:18:21;597.60;;;58.13;;
27893;SDS011;15240;50.812;4.792;2023-02-13T00:20:55;549.33;;;54.63;;
27893;SDS011;15240;50.812;4.792;2023-02-13T00:23:22;608.53;;;60.13;;
27893;SDS011;15240;50.812;4.792;2023-02-13T00:25:48;388.43;;;46.97;;
27893;SDS011;15240;50.812;4.792;2023-02-13T00:28:14;436.80;;;46.17;;
27893;SDS011;15240;50.812;4.792;2023-02-13T00:30:40;354.70;;;45.07;;
27893;SDS011;15240;50.812;4.792;2023-02-13T00:33:06;395.33;;;45.73;;
27893;SDS011;15240;50.812;4.792;2023-02-13T00:35:32;511.97;;;58.80;;
27893;SDS011;15240;50.812;4.792;2023-02-13T00:37:58;498.67;;;66.73;;
27893;SDS011;15240;50.812;4.792;2023-02-13T00:40:24;661.63;;;73.10;;
27893;SDS011;15240;50.812;4.792;2023-02-13T00:42:50;381.50;;;60.23;;
27893;SDS011;15240;50.812;4.792;2023-02-13T00:45:16;429.43;;;52.73;;
27893;SDS011;15240;50.812;4.792;2023-02-13T00:47:42;321.43;;;44.70;;
27893;SDS011;15240;50.812;4.792;2023-02-13T00:50:08;322.70;;;48.33;;
27893;SDS011;15240;50.812;4.792;2023-02-13T00:52:34;421.00;;;55.30;;
27893;SDS011;15240;50.812;4.792;2023-02-13T00:55:00;399.17;;;57.67;;
27893;SDS011;15240;50.812;4.792;2023-02-13T00:57:27;362.83;;;56.13;;
27893;SDS011;15240;50.812;4.792;2023-02-13T00:59:55;317.27;;;53.33;;
27893;SDS011;15240;50.812;4.792;2023-02-13T01:02:21;301.33;;;56.47;;
27893;SDS011;15240;50.812;4.792;2023-02-13T01:04:48;412.90;;;51.30;;
27893;SDS011;15240;50.812;4.792;2023-02-13T01:07:14;323.03;;;50.07;;
27893;SDS011;15240;50.812;4.792;2023-02-13T01:09:40;507.23;;;56.83;;
27893;SDS011;15240;50.812;4.792;2023-02-13T01:12:06;327.67;;;47.10;;
27893;SDS011;15240;50.812;4.792;2023-02-13T01:14:32;278.03;;;44.10;;
27893;SDS011;15240;50.812;4.792;2023-02-13T01:16:58;350.07;;;46.77;;
27893;SDS011;15240;50.812;4.792;2023-02-13T01:19:24;313.23;;;48.33;;
27893;SDS011;15240;50.812;4.792;2023-02-13T01:21:50;345.63;;;47.00;;
27893;SDS011;15240;50.812;4.792;2023-02-13T01:24:16;263.70;;;44.57;;
27893;SDS011;15240;50.812;4.792;2023-02-13T01:26:42;436.97;;;49.73;;
27893;SDS011;15240;50.812;4.792;2023-02-13T01:29:11;296.90;;;45.17;;
27893;SDS011;15240;50.812;4.792;2023-02-13T01:31:37;221.53;;;43.00;;
27893;SDS011;15240;50.812;4.792;2023-02-13T01:34:03;207.47;;;42.70;;
27893;SDS011;15240;50.812;4.792;2023-02-13T01:36:29;238.87;;;43.47;;
27893;SDS011;15240;50.812;4.792;2023-02-13T01:38:56;206.53;;;42.47;;
27893;SDS011;15240;50.812;4.792;2023-02-13T01:41:24;281.90;;;44.97;;
27893;SDS011;15240;50.812;4.792;2023-02-13T01:43:55;194.00;;;41.47;;
27893;SDS011;15240;50.812;4.792;2023-02-13T01:46:28;183.17;;;41.70;;
27893;SDS011;15240;50.812;4.792;2023-02-13T01:48:57;228.57;;;40.93;;
27893;SDS011;15240;50.812;4.792;2023-02-13T01:51:28;200.20;;;43.67;;
27893;SDS011;15240;50.812;4.792;2023-02-13T01:54:03;186.00;;;41.57;;
27893;SDS011;15240;50.812;4.792;2023-02-13T01:56:35;171.53;;;40.97;;
27893;SDS011;15240;50.812;4.792;2023-02-13T01:59:12;144.10;;;38.93;;
27893;SDS011;15240;50.812;4.792;2023-02-13T02:01:39;129.67;;;37.17;;
27893;SDS011;15240;50.812;4.792;2023-02-13T02:06:33;142.03;;;38.33;;
27893;SDS011;15240;50.812;4.792;2023-02-13T02:09:02;150.83;;;37.83;;
27893;SDS011;15240;50.812;4.792;2023-02-13T02:11:35;95.20;;;37.07;;
27893;SDS011;15240;50.812;4.792;2023-02-13T02:14:03;166.40;;;37.10;;
27893;SDS011;15240;50.812;4.792;2023-02-13T02:16:29;89.17;;;36.33;;
27893;SDS011;15240;50.812;4.792;2023-02-13T02:18:57;107.10;;;36.17;;
27893;SDS011;15240;50.812;4.792;2023-02-13T02:42:26;70.70;;;31.87;;
27893;SDS011;15240;50.812;4.792;2023-02-13T02:44:55;121.60;;;35.00;;
27893;SDS011;15240;50.812;4.792;2023-02-13T02:58:30;112.70;;;33.07;;
27893;SDS011;15240;50.812;4.792;2023-02-13T03:01:17;131.53;;;35.37;;
27893;SDS011;15240;50.812;4.792;2023-02-13T03:04:03;98.53;;;33.00;;
27893;SDS011;15240;50.812;4.792;2023-02-13T03:06:58;83.47;;;31.83;;
27893;SDS011;15240;50.812;4.792;2023-02-13T03:09:28;119.10;;;34.57;;
27893;SDS011;15240;50.812;4.792;2023-02-13T03:12:14;95.47;;;32.90;;
27893;SDS011;15240;50.812;4.792;2023-02-13T03:15:00;83.47;;;32.60;;
27893;SDS011;15240;50.812;4.792;2023-02-13T03:17:27;96.50;;;32.87;;
27893;SDS011;15240;50.812;4.792;2023-02-13T03:31:23;86.23;;;31.50;;
27893;SDS011;15240;50.812;4.792;2023-02-13T03:34:03;74.93;;;32.27;;
27893;SDS011;15240;50.812;4.792;2023-02-13T03:36:32;62.10;;;31.33;;
27893;SDS011;15240;50.812;4.792;2023-02-13T03:41:59;61.67;;;30.53;;
27893;SDS011;15240;50.812;4.792;2023-02-13T03:44:43;58.63;;;30.80;;
27893;SDS011;15240;50.812;4.792;2023-02-13T03:47:11;70.03;;;29.23;;
27893;SDS011;15240;50.812;4.792;2023-02-13T03:49:47;63.47;;;31.17;;
27893;SDS011;15240;50.812;4.792;2023-02-13T03:55:12;59.63;;;29.93;;
27893;SDS011;15240;50.812;4.792;2023-02-13T03:57:59;49.70;;;29.27;;
27893;SDS011;15240;50.812;4.792;2023-02-13T04:00:47;45.87;;;27.70;;
27893;SDS011;15240;50.812;4.792;2023-02-13T04:03:27;53.53;;;30.80;;
27893;SDS011;15240;50.812;4.792;2023-02-13T04:05:57;49.17;;;28.40;;
27893;SDS011;15240;50.812;4.792;2023-02-13T04:08:26;55.43;;;30.17;;
27893;SDS011;15240;50.812;4.792;2023-02-13T04:10:53;48.47;;;29.43;;
27893;SDS011;15240;50.812;4.792;2023-02-13T04:13:29;48.57;;;28.30;;
27893;SDS011;15240;50.812;4.792;2023-02-13T04:18:28;46.70;;;28.27;;
27893;SDS011;15240;50.812;4.792;2023-02-13T04:20:55;47.73;;;28.67;;
27893;SDS011;15240;50.812;4.792;2023-02-13T04:23:21;50.80;;;29.77;;
27893;SDS011;15240;50.812;4.792;2023-02-13T04:25:49;47.00;;;28.40;;
27893;SDS011;15240;50.812;4.792;2023-02-13T04:28:15;47.77;;;27.53;;
27893;SDS011;15240;50.812;4.792;2023-02-13T04:30:41;47.73;;;28.53;;
27893;SDS011;15240;50.812;4.792;2023-02-13T04:33:07;48.03;;;29.17;;
27893;SDS011;15240;50.812;4.792;2023-02-13T04:35:33;51.73;;;29.27;;
27893;SDS011;15240;50.812;4.792;2023-02-13T04:38:00;50.00;;;29.23;;
27893;SDS011;15240;50.812;4.792;2023-02-13T04:40:26;50.93;;;28.57;;
27893;SDS011;15240;50.812;4.792;2023-02-13T04:42:52;53.10;;;30.70;;
27893;SDS011;15240;50.812;4.792;2023-02-13T04:45:18;52.43;;;31.07;;
27893;SDS011;15240;50.812;4.792;2023-02-13T04:47:54;51.90;;;31.17;;
27893;SDS011;15240;50.812;4.792;2023-02-13T04:50:20;51.87;;;30.67;;
27893;SDS011;15240;50.812;4.792;2023-02-13T04:52:46;48.67;;;28.97;;
27893;SDS011;15240;50.812;4.792;2023-02-13T04:55:13;51.30;;;30.20;;
27893;SDS011;15240;50.812;4.792;2023-02-13T04:57:39;53.30;;;31.43;;
27893;SDS011;15240;50.812;4.792;2023-02-13T05:00:06;54.73;;;32.83;;
27893;SDS011;15240;50.812;4.792;2023-02-13T05:02:33;55.97;;;31.10;;
27893;SDS011;15240;50.812;4.792;2023-02-13T05:04:59;51.03;;;29.30;;
27893;SDS011;15240;50.812;4.792;2023-02-13T05:07:25;51.67;;;30.57;;
27893;SDS011;15240;50.812;4.792;2023-02-13T05:09:51;49.97;;;30.10;;
27893;SDS011;15240;50.812;4.792;2023-02-13T05:12:17;49.50;;;29.80;;
27893;SDS011;15240;50.812;4.792;2023-02-13T05:14:43;56.33;;;31.53;;
27893;SDS011;15240;50.812;4.792;2023-02-13T05:17:09;61.27;;;33.57;;
27893;SDS011;15240;50.812;4.792;2023-02-13T05:19:35;64.20;;;33.13;;
27893;SDS011;15240;50.812;4.792;2023-02-13T05:22:01;61.43;;;34.23;;
27893;SDS011;15240;50.812;4.792;2023-02-13T05:24:45;64.33;;;35.03;;
27893;SDS011;15240;50.812;4.792;2023-02-13T05:27:11;63.63;;;33.90;;
27893;SDS011;15240;50.812;4.792;2023-02-13T05:29:37;56.37;;;32.37;;
27893;SDS011;15240;50.812;4.792;2023-02-13T05:32:03;57.07;;;31.13;;
27893;SDS011;15240;50.812;4.792;2023-02-13T05:34:30;63.30;;;34.47;;
27893;SDS011;15240;50.812;4.792;2023-02-13T05:36:56;64.00;;;34.93;;
27893;SDS011;15240;50.812;4.792;2023-02-13T05:39:22;62.50;;;33.47;;
27893;SDS011;15240;50.812;4.792;2023-02-13T05:41:49;65.73;;;35.40;;
27893;SDS011;15240;50.812;4.792;2023-02-13T05:44:15;68.37;;;36.17;;
27893;SDS011;15240;50.812;4.792;2023-02-13T05:46:41;66.83;;;36.33;;
27893;SDS011;15240;50.812;4.792;2023-02-13T05:49:09;78.57;;;37.57;;
27893;SDS011;15240;50.812;4.792;2023-02-13T05:51:35;69.50;;;36.33;;
27893;SDS011;15240;50.812;4.792;2023-02-13T05:54:01;73.20;;;36.57;;
27893;SDS011;15240;50.812;4.792;2023-02-13T05:56:27;70.00;;;36.10;;
27893;SDS011;15240;50.812;4.792;2023-02-13T05:58:54;64.43;;;34.50;;
27893;SDS011;15240;50.812;4.792;2023-02-13T06:01:20;68.43;;;35.27;;
27893;SDS011;15240;50.812;4.792;2023-02-13T06:03:47;59.73;;;31.37;;
27893;SDS011;15240;50.812;4.792;2023-02-13T06:06:13;77.33;;;37.83;;
27893;SDS011;15240;50.812;4.792;2023-02-13T06:08:39;82.87;;;39.47;;
27893;SDS011;15240;50.812;4.792;2023-02-13T06:11:05;71.13;;;36.37;;
27893;SDS011;15240;50.812;4.792;2023-02-13T06:13:31;70.57;;;35.80;;
27893;SDS011;15240;50.812;4.792;2023-02-13T06:15:57;74.97;;;35.60;;
27893;SDS011;15240;50.812;4.792;2023-02-13T06:18:24;70.70;;;34.53;;
27893;SDS011;15240;50.812;4.792;2023-02-13T06:20:50;69.97;;;35.33;;
27893;SDS011;15240;50.812;4.792;2023-02-13T06:23:16;83.47;;;37.27;;
27893;SDS011;15240;50.812;4.792;2023-02-13T06:25:42;80.50;;;35.97;;
27893;SDS011;15240;50.812;4.792;2023-02-13T06:28:08;87.53;;;37.73;;
27893;SDS011;15240;50.812;4.792;2023-02-13T06:30:34;90.93;;;38.57;;
27893;SDS011;15240;50.812;4.792;2023-02-13T06:33:00;92.40;;;38.37;;
27893;SDS011;15240;50.812;4.792;2023-02-13T06:35:27;95.57;;;37.97;;
27893;SDS011;15240;50.812;4.792;2023-02-13T06:37:53;94.60;;;42.23;;
27893;SDS011;15240;50.812;4.792;2023-02-13T06:40:19;92.07;;;38.67;;
27893;SDS011;15240;50.812;4.792;2023-02-13T06:42:45;90.77;;;37.03;;
27893;SDS011;15240;50.812;4.792;2023-02-13T06:45:11;82.57;;;37.07;;
27893;SDS011;15240;50.812;4.792;2023-02-13T06:47:41;74.73;;;34.73;;
27893;SDS011;15240;50.812;4.792;2023-02-13T06:50:08;75.67;;;34.30;;
27893;SDS011;15240;50.812;4.792;2023-02-13T06:52:34;89.90;;;37.23;;
27893;SDS011;15240;50.812;4.792;2023-02-13T06:55:00;90.47;;;38.67;;
27893;SDS011;15240;50.812;4.792;2023-02-13T06:57:27;85.63;;;39.53;;
27893;SDS011;15240;50.812;4.792;2023-02-13T06:59:57;81.97;;;37.33;;
27893;SDS011;15240;50.812;4.792;2023-02-13T07:02:23;85.70;;;36.60;;
27893;SDS011;15240;50.812;4.792;2023-02-13T07:04:49;84.50;;;38.80;;
27893;SDS011;15240;50.812;4.792;2023-02-13T07:07:15;74.63;;;35.77;;
27893;SDS011;15240;50.812;4.792;2023-02-13T07:09:41;87.07;;;38.27;;
27893;SDS011;15240;50.812;4.792;2023-02-13T07:12:07;87.80;;;39.83;;
27893;SDS011;15240;50.812;4.792;2023-02-13T07:14:33;85.03;;;38.47;;
27893;SDS011;15240;50.812;4.792;2023-02-13T07:16:59;85.10;;;38.93;;
27893;SDS011;15240;50.812;4.792;2023-02-13T07:19:25;85.67;;;39.13;;
27893;SDS011;15240;50.812;4.792;2023-02-13T07:21:51;86.93;;;39.70;;
27893;SDS011;15240;50.812;4.792;2023-02-13T07:24:17;93.00;;;39.47;;
27893;SDS011;15240;50.812;4.792;2023-02-13T07:26:43;89.43;;;39.07;;
27893;SDS011;15240;50.812;4.792;2023-02-13T07:29:09;88.87;;;39.47;;
27893;SDS011;15240;50.812;4.792;2023-02-13T07:31:35;85.20;;;38.23;;
27893;SDS011;15240;50.812;4.792;2023-02-13T07:34:03;87.10;;;40.50;;
27893;SDS011;15240;50.812;4.792;2023-02-13T07:36:29;93.57;;;41.20;;
27893;SDS011;15240;50.812;4.792;2023-02-13T07:38:55;90.20;;;41.23;;
27893;SDS011;15240;50.812;4.792;2023-02-13T07:41:21;86.57;;;40.97;;
27893;SDS011;15240;50.812;4.792;2023-02-13T07:43:50;79.70;;;39.07;;
27893;SDS011;15240;50.812;4.792;2023-02-13T07:46:16;76.67;;;38.80;;
27893;SDS011;15240;50.812;4.792;2023-02-13T07:48:43;73.53;;;38.47;;
27893;SDS011;15240;50.812;4.792;2023-02-13T07:51:09;65.40;;;33.77;;
27893;SDS011;15240;50.812;4.792;2023-02-13T07:53:35;55.57;;;31.67;;
27893;SDS011;15240;50.812;4.792;2023-02-13T07:56:06;50.57;;;30.37;;
27893;SDS011;15240;50.812;4.792;2023-02-13T07:58:33;45.73;;;28.50;;
27893;SDS011;15240;50.812;4.792;2023-02-13T08:01:04;45.73;;;28.23;;
27893;SDS011;15240;50.812;4.792;2023-02-13T08:03:30;44.97;;;27.33;;
27893;SDS011;15240;50.812;4.792;2023-02-13T08:05:56;45.10;;;26.40;;
27893;SDS011;15240;50.812;4.792;2023-02-13T08:08:22;37.40;;;23.93;;
27893;SDS011;15240;50.812;4.792;2023-02-13T08:10:48;39.27;;;23.93;;
27893;SDS011;15240;50.812;4.792;2023-02-13T08:13:33;37.07;;;23.33;;
27893;SDS011;15240;50.812;4.792;2023-02-13T08:15:59;36.60;;;22.87;;
27893;SDS011;15240;50.812;4.792;2023-02-13T08:18:26;36.53;;;21.80;;
27893;SDS011;15240;50.812;4.792;2023-02-13T08:20:52;34.77;;;22.57;;
27893;SDS011;15240;50.812;4.792;2023-02-13T08:23:18;34.37;;;21.17;;
27893;SDS011;15240;50.812;4.792;2023-02-13T08:25:44;30.37;;;19.87;;
27893;SDS011;15240;50.812;4.792;2023-02-13T08:28:11;31.10;;;20.03;;
27893;SDS011;15240;50.812;4.792;2023-02-13T08:30:37;30.97;;;19.67;;
27893;SDS011;15240;50.812;4.792;2023-02-13T08:33:04;32.33;;;20.73;;
27893;SDS011;15240;50.812;4.792;2023-02-13T08:35:30;31.63;;;20.07;;
27893;SDS011;15240;50.812;4.792;2023-02-13T08:37:56;30.27;;;19.87;;
27893;SDS011;15240;50.812;4.792;2023-02-13T08:40:22;29.90;;;19.27;;
27893;SDS011;15240;50.812;4.792;2023-02-13T08:42:48;30.83;;;19.83;;
27893;SDS011;15240;50.812;4.792;2023-02-13T08:45:14;32.77;;;19.73;;
27893;SDS011;15240;50.812;4.792;2023-02-13T08:47:40;27.87;;;18.30;;
27893;SDS011;15240;50.812;4.792;2023-02-13T08:50:06;31.50;;;19.50;;
27893;SDS011;15240;50.812;4.792;2023-02-13T08:52:32;30.80;;;19.50;;
27893;SDS011;15240;50.812;4.792;2023-02-13T08:54:58;30.80;;;19.23;;
27893;SDS011;15240;50.812;4.792;2023-02-13T08:57:25;31.13;;;20.20;;
27893;SDS011;15240;50.812;4.792;2023-02-13T08:59:51;28.73;;;17.80;;
27893;SDS011;15240;50.812;4.792;2023-02-13T09:02:17;29.53;;;18.20;;
27893;SDS011;15240;50.812;4.792;2023-02-13T09:04:44;29.20;;;18.17;;
27893;SDS011;15240;50.812;4.792;2023-02-13T09:07:10;29.00;;;18.57;;
27893;SDS011;15240;50.812;4.792;2023-02-13T09:09:36;27.63;;;17.57;;
27893;SDS011;15240;50.812;4.792;2023-02-13T09:12:02;28.60;;;18.37;;
27893;SDS011;15240;50.812;4.792;2023-02-13T09:14:28;30.17;;;18.27;;
27893;SDS011;15240;50.812;4.792;2023-02-13T09:16:54;28.37;;;18.23;;
27893;SDS011;15240;50.812;4.792;2023-02-13T09:19:20;28.73;;;18.27;;
27893;SDS011;15240;50.812;4.792;2023-02-13T09:21:46;29.10;;;18.90;;
27893;SDS011;15240;50.812;4.792;2023-02-13T09:24:12;29.80;;;18.53;;
27893;SDS011;15240;50.812;4.792;2023-02-13T09:26:38;31.77;;;19.43;;
27893;SDS011;15240;50.812;4.792;2023-02-13T09:29:05;29.53;;;19.27;;
27893;SDS011;15240;50.812;4.792;2023-02-13T09:31:31;31.50;;;19.60;;
27893;SDS011;15240;50.812;4.792;2023-02-13T09:33:57;33.57;;;19.33;;
27893;SDS011;15240;50.812;4.792;2023-02-13T09:36:23;32.53;;;19.83;;
27893;SDS011;15240;50.812;4.792;2023-02-13T09:38:53;33.40;;;19.60;;
27893;SDS011;15240;50.812;4.792;2023-02-13T09:43:56;33.53;;;20.27;;
27893;SDS011;15240;50.812;4.792;2023-02-13T09:48:53;34.37;;;20.30;;
27893;SDS011;15240;50.812;4.792;2023-02-13T09:51:20;33.27;;;20.53;;
27893;SDS011;15240;50.812;4.792;2023-02-13T09:56:26;34.47;;;20.67;;
27893;SDS011;15240;50.812;4.792;2023-02-13T09:59:11;33.73;;;20.50;;
27893;SDS011;15240;50.812;4.792;2023-02-13T10:01:41;34.80;;;20.00;;
27893;SDS011;15240;50.812;4.792;2023-02-13T10:06:44;35.27;;;20.93;;
27893;SDS011;15240;50.812;4.792;2023-02-13T10:11:48;35.23;;;21.33;;
27893;SDS011;15240;50.812;4.792;2023-02-13T10:14:22;36.50;;;20.20;;
27893;SDS011;15240;50.812;4.792;2023-02-13T10:16:52;34.00;;;20.50;;
27893;SDS011;15240;50.812;4.792;2023-02-13T10:21:53;35.50;;;21.47;;
27893;SDS011;15240;50.812;4.792;2023-02-13T10:24:32;34.23;;;19.93;;
27893;SDS011;15240;50.812;4.792;2023-02-13T10:27:01;33.13;;;19.67;;
27893;SDS011;15240;50.812;4.792;2023-02-13T10:29:45;32.00;;;20.07;;
27893;SDS011;15240;50.812;4.792;2023-02-13T10:35:35;31.30;;;19.40;;
27893;SDS011;15240;50.812;4.792;2023-02-13T10:38:03;30.83;;;18.70;;
27893;SDS011;15240;50.812;4.792;2023-02-13T10:40:37;32.13;;;19.03;;
27893;SDS011;15240;50.812;4.792;2023-02-13T10:43:08;28.03;;;18.23;;
27893;SDS011;15240;50.812;4.792;2023-02-13T11:03:59;29.87;;;18.67;;
27893;SDS011;15240;50.812;4.792;2023-02-13T11:06:25;28.93;;;17.83;;
27893;SDS011;15240;50.812;4.792;2023-02-13T11:08:51;27.27;;;16.43;;
27893;SDS011;15240;50.812;4.792;2023-02-13T11:11:29;29.73;;;18.10;;
27893;SDS011;15240;50.812;4.792;2023-02-13T11:14:37;31.33;;;17.77;;
27893;SDS011;15240;50.812;4.792;2023-02-13T11:16:58;27.63;;;16.90;;
27893;SDS011;15240;50.812;4.792;2023-02-13T11:19:29;28.57;;;15.87;;
27893;SDS011;15240;50.812;4.792;2023-02-13T11:21:57;25.23;;;16.20;;
27893;SDS011;15240;50.812;4.792;2023-02-13T11:24:25;28.00;;;16.80;;
27893;SDS011;15240;50.812;4.792;2023-02-13T11:26:52;26.20;;;17.10;;
27893;SDS011;15240;50.812;4.792;2023-02-13T11:32:01;25.70;;;16.23;;
27893;SDS011;15240;50.812;4.792;2023-02-13T11:34:28;27.27;;;16.20;;
27893;SDS011;15240;50.812;4.792;2023-02-13T11:37:15;27.23;;;17.53;;
27893;SDS011;15240;50.812;4.792;2023-02-13T11:39:43;29.07;;;17.47;;
27893;SDS011;15240;50.812;4.792;2023-02-13T11:42:19;29.37;;;18.13;;
27893;SDS011;15240;50.812;4.792;2023-02-13T11:44:51;27.00;;;17.23;;
27893;SDS011;15240;50.812;4.792;2023-02-13T11:47:28;25.20;;;16.63;;
27893;SDS011;15240;50.812;4.792;2023-02-13T11:49:55;28.07;;;17.47;;
27893;SDS011;15240;50.812;4.792;2023-02-13T11:52:25;26.40;;;16.60;;
27893;SDS011;15240;50.812;4.792;2023-02-13T11:54:59;25.83;;;17.20;;
27893;SDS011;15240;50.812;4.792;2023-02-13T11:59:55;25.90;;;17.00;;
27893;SDS011;15240;50.812;4.792;2023-02-13T12:02:22;25.53;;;16.37;;
27893;SDS011;15240;50.812;4.792;2023-02-13T12:04:49;25.13;;;16.50;;
27893;SDS011;15240;50.812;4.792;2023-02-13T12:09:43;23.83;;;15.23;;
27893;SDS011;15240;50.812;4.792;2023-02-13T12:12:13;22.57;;;15.07;;
27893;SDS011;15240;50.812;4.792;2023-02-13T12:14:42;23.10;;;15.13;;
27893;SDS011;15240;50.812;4.792;2023-02-13T12:17:22;21.47;;;14.20;;
27893;SDS011;15240;50.812;4.792;2023-02-13T12:19:50;23.73;;;15.03;;
27893;SDS011;15240;50.812;4.792;2023-02-13T12:46:00;20.40;;;13.00;;
27893;SDS011;15240;50.812;4.792;2023-02-13T12:48:39;17.40;;;12.43;;
27893;SDS011;15240;50.812;4.792;2023-02-13T12:54:06;20.67;;;12.97;;
27893;SDS011;15240;50.812;4.792;2023-02-13T13:10:13;21.50;;;14.07;;
27893;SDS011;15240;50.812;4.792;2023-02-13T13:15:36;21.87;;;13.57;;
27893;SDS011;15240;50.812;4.792;2023-02-13T13:25:24;22.03;;;12.97;;
27893;SDS011;15240;50.812;4.792;2023-02-13T13:27:54;23.23;;;14.13;;
27893;SDS011;15240;50.812;4.792;2023-02-13T13:30:26;20.10;;;13.17;;
27893;SDS011;15240;50.812;4.792;2023-02-13T13:35:28;17.77;;;11.30;;
27893;SDS011;15240;50.812;4.792;2023-02-13T13:37:57;17.17;;;11.33;;
27893;SDS011;15240;50.812;4.792;2023-02-13T13:40:39;17.67;;;10.90;;
27893;SDS011;15240;50.812;4.792;2023-02-13T13:43:16;16.53;;;11.27;;
27893;SDS011;15240;50.812;4.792;2023-02-13T13:45:46;16.13;;;11.20;;
27893;SDS011;15240;50.812;4.792;2023-02-13T13:48:37;16.63;;;11.30;;
27893;SDS011;15240;50.812;4.792;2023-02-13T13:51:05;17.13;;;11.87;;
27893;SDS011;15240;50.812;4.792;2023-02-13T13:53:32;17.53;;;11.37;;
27893;SDS011;15240;50.812;4.792;2023-02-13T13:55:59;16.10;;;11.50;;
27893;SDS011;15240;50.812;4.792;2023-02-13T13:58:31;16.73;;;11.17;;
27893;SDS011;15240;50.812;4.792;2023-02-13T14:03:39;15.97;;;10.60;;
27893;SDS011;15240;50.812;4.792;2023-02-13T14:06:08;16.10;;;11.27;;
27893;SDS011;15240;50.812;4.792;2023-02-13T14:11:05;13.93;;;9.57;;
27893;SDS011;15240;50.812;4.792;2023-02-13T14:13:36;13.33;;;9.30;;
27893;SDS011;15240;50.812;4.792;2023-02-13T14:16:03;15.67;;;10.03;;
27893;SDS011;15240;50.812;4.792;2023-02-13T14:18:30;14.70;;;10.13;;
27893;SDS011;15240;50.812;4.792;2023-02-13T14:21:00;15.77;;;10.13;;
27893;SDS011;15240;50.812;4.792;2023-02-13T14:28:38;16.20;;;10.33;;
27893;SDS011;15240;50.812;4.792;2023-02-13T14:31:19;13.00;;;8.73;;
27893;SDS011;15240;50.812;4.792;2023-02-13T14:33:53;12.50;;;8.43;;
27893;SDS011;15240;50.812;4.792;2023-02-13T14:36:21;12.60;;;8.30;;
27893;SDS011;15240;50.812;4.792;2023-02-13T14:39:06;11.30;;;8.30;;
27893;SDS011;15240;50.812;4.792;2023-02-13T14:44:07;13.60;;;8.70;;
27893;SDS011;15240;50.812;4.792;2023-02-13T14:46:39;13.30;;;8.47;;
27893;SDS011;15240;50.812;4.792;2023-02-13T14:51:44;15.47;;;10.30;;
27893;SDS011;15240;50.812;4.792;2023-02-13T14:56:36;13.03;;;9.13;;
27893;SDS011;15240;50.812;4.792;2023-02-13T14:59:13;14.27;;;10.03;;
27893;SDS011;15240;50.812;4.792;2023-02-13T15:06:43;17.10;;;9.33;;
27893;SDS011;15240;50.812;4.792;2023-02-13T15:09:30;15.73;;;9.00;;
27893;SDS011;15240;50.812;4.792;2023-02-13T15:11:57;13.93;;;9.07;;
27893;SDS011;15240;50.812;4.792;2023-02-13T15:16:53;14.97;;;9.83;;
27893;SDS011;15240;50.812;4.792;2023-02-13T15:19:21;15.73;;;9.60;;
27893;SDS011;15240;50.812;4.792;2023-02-13T15:21:49;15.13;;;10.30;;
27893;SDS011;15240;50.812;4.792;2023-02-13T15:24:16;16.40;;;10.83;;
27893;SDS011;15240;50.812;4.792;2023-02-13T15:26:50;17.00;;;10.93;;
27893;SDS011;15240;50.812;4.792;2023-02-13T15:29:18;15.77;;;10.63;;
27893;SDS011;15240;50.812;4.792;2023-02-13T15:31:44;17.27;;;11.00;;
27893;SDS011;15240;50.812;4.792;2023-02-13T15:34:26;16.50;;;11.47;;
27893;SDS011;15240;50.812;4.792;2023-02-13T15:36:53;17.90;;;11.37;;
27893;SDS011;15240;50.812;4.792;2023-02-13T15:39:22;17.97;;;11.23;;
27893;SDS011;15240;50.812;4.792;2023-02-13T15:41:50;18.40;;;12.40;;
27893;SDS011;15240;50.812;4.792;2023-02-13T15:44:18;17.50;;;11.90;;
27893;SDS011;15240;50.812;4.792;2023-02-13T15:46:48;17.43;;;12.17;;
27893;SDS011;15240;50.812;4.792;2023-02-13T15:49:18;17.43;;;12.10;;
27893;SDS011;15240;50.812;4.792;2023-02-13T15:51:45;20.07;;;13.00;;
27893;SDS011;15240;50.812;4.792;2023-02-13T15:56:47;18.13;;;12.13;;
27893;SDS011;15240;50.812;4.792;2023-02-13T15:59:14;17.50;;;11.50;;
27893;SDS011;15240;50.812;4.792;2023-02-13T16:01:41;19.20;;;12.13;;
27893;SDS011;15240;50.812;4.792;2023-02-13T16:04:11;18.83;;;12.20;;
27893;SDS011;15240;50.812;4.792;2023-02-13T16:06:42;22.30;;;13.17;;
27893;SDS011;15240;50.812;4.792;2023-02-13T16:14:48;20.77;;;13.80;;
27893;SDS011;15240;50.812;4.792;2023-02-13T16:17:17;21.33;;;14.13;;
27893;SDS011;15240;50.812;4.792;2023-02-13T16:19:51;20.03;;;13.53;;
27893;SDS011;15240;50.812;4.792;2023-02-13T16:24:48;22.57;;;14.20;;
27893;SDS011;15240;50.812;4.792;2023-02-13T16:27:15;19.23;;;13.07;;
27893;SDS011;15240;50.812;4.792;2023-02-13T16:30:24;22.43;;;13.73;;
27893;SDS011;15240;50.812;4.792;2023-02-13T16:32:32;24.33;;;13.90;;
27893;SDS011;15240;50.812;4.792;2023-02-13T16:38:02;18.03;;;12.43;;
27893;SDS011;15240;50.812;4.792;2023-02-13T16:40:38;22.57;;;12.87;;
27893;SDS011;15240;50.812;4.792;2023-02-13T16:45:50;20.07;;;12.53;;
27893;SDS011;15240;50.812;4.792;2023-02-13T16:48:16;19.90;;;12.87;;
27893;SDS011;15240;50.812;4.792;2023-02-13T16:50:42;20.80;;;12.50;;
27893;SDS011;15240;50.812;4.792;2023-02-13T16:53:08;19.37;;;12.37;;
27893;SDS011;15240;50.812;4.792;2023-02-13T16:55:34;20.13;;;12.30;;
27893;SDS011;15240;50.812;4.792;2023-02-13T16:58:04;17.90;;;12.27;;
27893;SDS011;15240;50.812;4.792;2023-02-13T17:00:32;19.50;;;12.50;;
27893;SDS011;15240;50.812;4.792;2023-02-13T17:02:58;19.87;;;12.87;;
27893;SDS011;15240;50.812;4.792;2023-02-13T17:05:27;18.77;;;12.33;;
27893;SDS011;15240;50.812;4.792;2023-02-13T17:07:54;19.93;;;12.43;;
27893;SDS011;15240;50.812;4.792;2023-02-13T17:13:21;22.80;;;13.33;;
27893;SDS011;15240;50.812;4.792;2023-02-13T17:15:47;21.30;;;13.27;;
27893;SDS011;15240;50.812;4.792;2023-02-13T17:18:14;20.87;;;13.50;;
27893;SDS011;15240;50.812;4.792;2023-02-13T17:20:41;30.67;;;17.33;;
27893;SDS011;15240;50.812;4.792;2023-02-13T17:23:12;24.00;;;16.40;;
27893;SDS011;15240;50.812;4.792;2023-02-13T17:25:39;19.83;;;13.10;;
27893;SDS011;15240;50.812;4.792;2023-02-13T17:28:13;22.57;;;13.67;;
27893;SDS011;15240;50.812;4.792;2023-02-13T17:30:39;25.77;;;13.60;;
27893;SDS011;15240;50.812;4.792;2023-02-13T17:33:09;23.00;;;13.17;;
27893;SDS011;15240;50.812;4.792;2023-02-13T17:35:36;20.97;;;13.43;;
27893;SDS011;15240;50.812;4.792;2023-02-13T17:38:03;19.97;;;12.77;;
27893;SDS011;15240;50.812;4.792;2023-02-13T17:40:30;20.63;;;13.57;;
27893;SDS011;15240;50.812;4.792;2023-02-13T17:42:56;20.90;;;14.40;;
27893;SDS011;15240;50.812;4.792;2023-02-13T17:45:24;24.07;;;14.83;;
27893;SDS011;15240;50.812;4.792;2023-02-13T17:47:50;25.13;;;15.63;;